sensor_id;sensor_type;location;lat;lon;timestamp;P1;durP1;ratioP1;P2;durP2;ratioP2
71038;SDS011;58692;43.212;27.908;2022-10-17T00:00:36;10.27;;;4.23;;
71038;SDS011;58692;43.212;27.908;2022-10-17T00:03:02;8.93;;;4.00;;
71038;SDS011;58692;43.212;27.908;2022-10-17T00:05:28;10.13;;;3.90;;
71038;SDS011;58692;43.212;27.908;2022-10-17T00:07:53;7.20;;;3.63;;
71038;SDS011;58692;43.212;27.908;2022-10-17T00:10:19;9.75;;;3.88;;
71038;SDS011;58692;43.212;27.908;2022-10-17T00:12:44;7.13;;;3.63;;
71038;SDS011;58692;43.212;27.908;2022-10-17T00:15:13;9.32;;;4.05;;
71038;SDS011;58692;43.212;27.908;2022-10-17T00:17:40;11.97;;;3.97;;
71038;SDS011;58692;43.212;27.908;2022-10-17T00:20:06;11.23;;;4.00;;
71038;SDS011;58692;43.212;27.908;2022-10-17T00:22:32;10.30;;;3.97;;
71038;SDS011;58692;43.212;27.908;2022-10-17T00:24:57;8.90;;;4.07;;
71038;SDS011;58692;43.212;27.908;2022-10-17T00:27:23;8.40;;;3.67;;
71038;SDS011;58692;43.212;27.908;2022-10-17T00:29:49;12.70;;;4.03;;
71038;SDS011;58692;43.212;27.908;2022-10-17T00:32:15;10.88;;;3.85;;
71038;SDS011;58692;43.212;27.908;2022-10-17T00:34:41;10.07;;;3.83;;
71038;SDS011;58692;43.212;27.908;2022-10-17T00:37:07;10.23;;;3.60;;
71038;SDS011;58692;43.212;27.908;2022-10-17T00:39:32;9.95;;;4.10;;
71038;SDS011;58692;43.212;27.908;2022-10-17T00:41:58;8.37;;;3.67;;
71038;SDS011;58692;43.212;27.908;2022-10-17T00:47:12;9.15;;;3.80;;
71038;SDS011;58692;43.212;27.908;2022-10-17T00:49:41;8.75;;;3.78;;
71038;SDS011;58692;43.212;27.908;2022-10-17T00:52:07;9.00;;;3.70;;
71038;SDS011;58692;43.212;27.908;2022-10-17T00:54:37;11.10;;;3.85;;
71038;SDS011;58692;43.212;27.908;2022-10-17T00:57:08;8.07;;;3.78;;
71038;SDS011;58692;43.212;27.908;2022-10-17T00:59:35;9.10;;;3.90;;
71038;SDS011;58692;43.212;27.908;2022-10-17T01:02:05;8.77;;;3.73;;
71038;SDS011;58692;43.212;27.908;2022-10-17T01:04:34;11.68;;;3.75;;
71038;SDS011;58692;43.212;27.908;2022-10-17T01:07:02;8.48;;;4.20;;
71038;SDS011;58692;43.212;27.908;2022-10-17T01:09:27;9.87;;;3.70;;
71038;SDS011;58692;43.212;27.908;2022-10-17T01:12:03;8.48;;;3.40;;
71038;SDS011;58692;43.212;27.908;2022-10-17T01:28:27;9.38;;;3.42;;
71038;SDS011;58692;43.212;27.908;2022-10-17T01:36:31;7.80;;;3.60;;
71038;SDS011;58692;43.212;27.908;2022-10-17T01:39:14;7.13;;;3.53;;
71038;SDS011;58692;43.212;27.908;2022-10-17T01:44:17;8.93;;;3.77;;
71038;SDS011;58692;43.212;27.908;2022-10-17T01:46:48;10.82;;;4.32;;
71038;SDS011;58692;43.212;27.908;2022-10-17T01:49:15;9.68;;;3.47;;
71038;SDS011;58692;43.212;27.908;2022-10-17T01:51:48;9.25;;;3.53;;
71038;SDS011;58692;43.212;27.908;2022-10-17T01:54:24;7.97;;;3.50;;
71038;SDS011;58692;43.212;27.908;2022-10-17T01:56:54;10.90;;;3.93;;
71038;SDS011;58692;43.212;27.908;2022-10-17T01:59:24;7.82;;;3.60;;
71038;SDS011;58692;43.212;27.908;2022-10-17T02:01:55;8.45;;;3.78;;
71038;SDS011;58692;43.212;27.908;2022-10-17T02:04:22;7.38;;;3.33;;
71038;SDS011;58692;43.212;27.908;2022-10-17T02:06:49;9.07;;;3.70;;
71038;SDS011;58692;43.212;27.908;2022-10-17T02:09:23;8.97;;;4.20;;
71038;SDS011;58692;43.212;27.908;2022-10-17T02:11:56;11.15;;;3.60;;
71038;SDS011;58692;43.212;27.908;2022-10-17T02:20:23;8.18;;;3.42;;
71038;SDS011;58692;43.212;27.908;2022-10-17T02:23:07;11.68;;;4.07;;
71038;SDS011;58692;43.212;27.908;2022-10-17T02:25:47;11.43;;;4.10;;
71038;SDS011;58692;43.212;27.908;2022-10-17T02:28:20;9.00;;;3.72;;
71038;SDS011;58692;43.212;27.908;2022-10-17T02:33:28;8.77;;;3.63;;
71038;SDS011;58692;43.212;27.908;2022-10-17T02:36:00;8.63;;;4.07;;
71038;SDS011;58692;43.212;27.908;2022-10-17T02:38:30;9.38;;;3.90;;
71038;SDS011;58692;43.212;27.908;2022-10-17T02:40:58;10.95;;;3.80;;
71038;SDS011;58692;43.212;27.908;2022-10-17T02:43:24;9.37;;;3.83;;
71038;SDS011;58692;43.212;27.908;2022-10-17T02:45:50;9.00;;;3.70;;
71038;SDS011;58692;43.212;27.908;2022-10-17T02:48:21;8.45;;;3.85;;
71038;SDS011;58692;43.212;27.908;2022-10-17T02:51:01;9.20;;;3.83;;
71038;SDS011;58692;43.212;27.908;2022-10-17T02:53:37;10.85;;;3.85;;
71038;SDS011;58692;43.212;27.908;2022-10-17T02:56:15;8.02;;;3.85;;
71038;SDS011;58692;43.212;27.908;2022-10-17T02:58:45;8.88;;;3.97;;
71038;SDS011;58692;43.212;27.908;2022-10-17T03:01:16;8.77;;;3.70;;
71038;SDS011;58692;43.212;27.908;2022-10-17T03:03:43;10.43;;;3.83;;
71038;SDS011;58692;43.212;27.908;2022-10-17T03:06:08;11.02;;;3.85;;
71038;SDS011;58692;43.212;27.908;2022-10-17T03:08:34;7.93;;;3.67;;
71038;SDS011;58692;43.212;27.908;2022-10-17T03:11:00;9.13;;;4.25;;
71038;SDS011;58692;43.212;27.908;2022-10-17T03:13:26;9.23;;;3.60;;
71038;SDS011;58692;43.212;27.908;2022-10-17T03:15:54;8.20;;;3.55;;
71038;SDS011;58692;43.212;27.908;2022-10-17T03:18:20;8.98;;;3.75;;
71038;SDS011;58692;43.212;27.908;2022-10-17T03:20:45;8.73;;;3.60;;
71038;SDS011;58692;43.212;27.908;2022-10-17T03:23:11;8.02;;;3.65;;
71038;SDS011;58692;43.212;27.908;2022-10-17T03:25:36;10.57;;;3.87;;
71038;SDS011;58692;43.212;27.908;2022-10-17T03:28:02;8.67;;;3.30;;
71038;SDS011;58692;43.212;27.908;2022-10-17T03:30:29;8.65;;;3.55;;
71038;SDS011;58692;43.212;27.908;2022-10-17T03:32:57;9.38;;;3.60;;
71038;SDS011;58692;43.212;27.908;2022-10-17T03:35:22;11.75;;;3.90;;
71038;SDS011;58692;43.212;27.908;2022-10-17T03:37:48;8.97;;;3.20;;
71038;SDS011;58692;43.212;27.908;2022-10-17T03:40:14;7.95;;;3.33;;
71038;SDS011;58692;43.212;27.908;2022-10-17T03:42:39;7.33;;;3.20;;
71038;SDS011;58692;43.212;27.908;2022-10-17T03:45:05;9.45;;;3.42;;
71038;SDS011;58692;43.212;27.908;2022-10-17T03:47:31;7.00;;;3.00;;
71038;SDS011;58692;43.212;27.908;2022-10-17T03:49:56;9.43;;;3.25;;
71038;SDS011;58692;43.212;27.908;2022-10-17T03:52:21;7.30;;;3.50;;
71038;SDS011;58692;43.212;27.908;2022-10-17T03:54:48;9.47;;;3.80;;
71038;SDS011;58692;43.212;27.908;2022-10-17T03:57:14;14.95;;;3.50;;
71038;SDS011;58692;43.212;27.908;2022-10-17T03:59:40;7.72;;;3.10;;
71038;SDS011;58692;43.212;27.908;2022-10-17T04:02:06;6.57;;;3.10;;
71038;SDS011;58692;43.212;27.908;2022-10-17T04:04:31;8.20;;;3.17;;
71038;SDS011;58692;43.212;27.908;2022-10-17T04:06:57;7.77;;;3.23;;
71038;SDS011;58692;43.212;27.908;2022-10-17T04:09:22;9.68;;;3.47;;
71038;SDS011;58692;43.212;27.908;2022-10-17T04:11:48;8.50;;;2.90;;
71038;SDS011;58692;43.212;27.908;2022-10-17T04:14:13;9.23;;;3.30;;
71038;SDS011;58692;43.212;27.908;2022-10-17T04:16:39;8.27;;;3.10;;
71038;SDS011;58692;43.212;27.908;2022-10-17T04:19:04;9.77;;;3.30;;
71038;SDS011;58692;43.212;27.908;2022-10-17T04:21:30;9.02;;;3.50;;
71038;SDS011;58692;43.212;27.908;2022-10-17T04:23:56;7.63;;;3.37;;
71038;SDS011;58692;43.212;27.908;2022-10-17T04:26:23;8.27;;;3.42;;
71038;SDS011;58692;43.212;27.908;2022-10-17T04:28:49;7.72;;;3.35;;
71038;SDS011;58692;43.212;27.908;2022-10-17T04:31:15;8.37;;;3.27;;
71038;SDS011;58692;43.212;27.908;2022-10-17T04:33:41;10.00;;;3.42;;
71038;SDS011;58692;43.212;27.908;2022-10-17T04:36:12;8.15;;;3.30;;
71038;SDS011;58692;43.212;27.908;2022-10-17T04:38:40;8.40;;;3.30;;
71038;SDS011;58692;43.212;27.908;2022-10-17T04:41:10;10.73;;;3.43;;
71038;SDS011;58692;43.212;27.908;2022-10-17T04:43:38;8.35;;;3.33;;
71038;SDS011;58692;43.212;27.908;2022-10-17T04:46:05;8.00;;;3.10;;
71038;SDS011;58692;43.212;27.908;2022-10-17T04:48:34;9.38;;;3.40;;
71038;SDS011;58692;43.212;27.908;2022-10-17T04:51:02;8.82;;;3.22;;
71038;SDS011;58692;43.212;27.908;2022-10-17T04:53:31;8.60;;;3.60;;
71038;SDS011;58692;43.212;27.908;2022-10-17T04:55:58;13.55;;;3.28;;
71038;SDS011;58692;43.212;27.908;2022-10-17T04:58:24;14.02;;;3.97;;
71038;SDS011;58692;43.212;27.908;2022-10-17T05:00:49;11.10;;;3.37;;
71038;SDS011;58692;43.212;27.908;2022-10-17T05:03:15;8.38;;;3.25;;
71038;SDS011;58692;43.212;27.908;2022-10-17T05:05:41;8.20;;;3.43;;
71038;SDS011;58692;43.212;27.908;2022-10-17T05:08:07;12.85;;;3.38;;
71038;SDS011;58692;43.212;27.908;2022-10-17T05:10:37;10.73;;;3.33;;
71038;SDS011;58692;43.212;27.908;2022-10-17T05:13:05;8.43;;;3.08;;
71038;SDS011;58692;43.212;27.908;2022-10-17T05:15:31;8.47;;;3.10;;
71038;SDS011;58692;43.212;27.908;2022-10-17T05:17:57;10.52;;;3.20;;
71038;SDS011;58692;43.212;27.908;2022-10-17T05:20:24;9.57;;;3.22;;
71038;SDS011;58692;43.212;27.908;2022-10-17T05:22:50;8.30;;;3.30;;
71038;SDS011;58692;43.212;27.908;2022-10-17T05:25:16;10.40;;;3.10;;
71038;SDS011;58692;43.212;27.908;2022-10-17T05:27:42;9.13;;;3.13;;
71038;SDS011;58692;43.212;27.908;2022-10-17T05:30:07;6.95;;;3.58;;
71038;SDS011;58692;43.212;27.908;2022-10-17T05:32:33;6.88;;;3.20;;
71038;SDS011;58692;43.212;27.908;2022-10-17T05:34:59;9.03;;;3.00;;
71038;SDS011;58692;43.212;27.908;2022-10-17T05:37:31;11.88;;;3.45;;
71038;SDS011;58692;43.212;27.908;2022-10-17T05:39:57;8.20;;;3.15;;
71038;SDS011;58692;43.212;27.908;2022-10-17T05:42:26;12.00;;;3.37;;
71038;SDS011;58692;43.212;27.908;2022-10-17T05:44:52;9.80;;;3.65;;
71038;SDS011;58692;43.212;27.908;2022-10-17T05:47:18;6.70;;;2.90;;
71038;SDS011;58692;43.212;27.908;2022-10-17T05:49:43;10.25;;;3.33;;
71038;SDS011;58692;43.212;27.908;2022-10-17T05:52:09;8.20;;;3.50;;
71038;SDS011;58692;43.212;27.908;2022-10-17T05:54:34;9.68;;;3.72;;
71038;SDS011;58692;43.212;27.908;2022-10-17T05:57:00;12.13;;;3.73;;
71038;SDS011;58692;43.212;27.908;2022-10-17T05:59:25;7.63;;;2.87;;
71038;SDS011;58692;43.212;27.908;2022-10-17T06:01:51;8.48;;;3.47;;
71038;SDS011;58692;43.212;27.908;2022-10-17T06:04:19;7.45;;;3.17;;
71038;SDS011;58692;43.212;27.908;2022-10-17T06:06:44;8.97;;;3.80;;
71038;SDS011;58692;43.212;27.908;2022-10-17T06:09:13;8.20;;;3.40;;
71038;SDS011;58692;43.212;27.908;2022-10-17T06:11:45;7.60;;;3.50;;
71038;SDS011;58692;43.212;27.908;2022-10-17T06:14:25;7.20;;;3.13;;
71038;SDS011;58692;43.212;27.908;2022-10-17T06:16:50;10.00;;;3.40;;
71038;SDS011;58692;43.212;27.908;2022-10-17T06:19:16;11.90;;;3.33;;
71038;SDS011;58692;43.212;27.908;2022-10-17T06:21:41;8.40;;;3.80;;
71038;SDS011;58692;43.212;27.908;2022-10-17T06:24:07;11.05;;;4.10;;
71038;SDS011;58692;43.212;27.908;2022-10-17T06:26:33;8.43;;;3.77;;
71038;SDS011;58692;43.212;27.908;2022-10-17T06:28:58;9.33;;;3.83;;
71038;SDS011;58692;43.212;27.908;2022-10-17T06:31:24;10.43;;;3.70;;
71038;SDS011;58692;43.212;27.908;2022-10-17T06:33:49;11.20;;;3.90;;
71038;SDS011;58692;43.212;27.908;2022-10-17T06:36:15;10.43;;;3.80;;
71038;SDS011;58692;43.212;27.908;2022-10-17T06:38:40;9.43;;;3.93;;
71038;SDS011;58692;43.212;27.908;2022-10-17T06:41:07;6.97;;;3.20;;
71038;SDS011;58692;43.212;27.908;2022-10-17T06:43:37;8.20;;;3.45;;
71038;SDS011;58692;43.212;27.908;2022-10-17T06:46:03;10.23;;;3.75;;
71038;SDS011;58692;43.212;27.908;2022-10-17T06:48:30;8.82;;;3.70;;
71038;SDS011;58692;43.212;27.908;2022-10-17T06:51:03;13.70;;;3.80;;
71038;SDS011;58692;43.212;27.908;2022-10-17T06:53:31;8.55;;;3.75;;
71038;SDS011;58692;43.212;27.908;2022-10-17T06:56:00;8.60;;;3.78;;
71038;SDS011;58692;43.212;27.908;2022-10-17T06:58:28;9.82;;;4.43;;
71038;SDS011;58692;43.212;27.908;2022-10-17T07:00:57;8.53;;;3.67;;
71038;SDS011;58692;43.212;27.908;2022-10-17T07:03:24;9.50;;;3.95;;
71038;SDS011;58692;43.212;27.908;2022-10-17T07:05:50;12.33;;;4.50;;
71038;SDS011;58692;43.212;27.908;2022-10-17T07:08:20;14.73;;;4.50;;
71038;SDS011;58692;43.212;27.908;2022-10-17T07:10:46;8.77;;;3.92;;
71038;SDS011;58692;43.212;27.908;2022-10-17T07:13:12;8.30;;;4.07;;
71038;SDS011;58692;43.212;27.908;2022-10-17T07:15:38;9.38;;;4.38;;
71038;SDS011;58692;43.212;27.908;2022-10-17T07:18:04;9.43;;;4.60;;
71038;SDS011;58692;43.212;27.908;2022-10-17T07:20:34;9.73;;;4.63;;
71038;SDS011;58692;43.212;27.908;2022-10-17T07:23:00;9.50;;;3.95;;
71038;SDS011;58692;43.212;27.908;2022-10-17T07:25:25;8.50;;;3.93;;
71038;SDS011;58692;43.212;27.908;2022-10-17T07:27:51;8.95;;;4.35;;
71038;SDS011;58692;43.212;27.908;2022-10-17T07:30:17;8.10;;;3.80;;
71038;SDS011;58692;43.212;27.908;2022-10-17T07:32:43;9.32;;;4.13;;
71038;SDS011;58692;43.212;27.908;2022-10-17T07:35:09;8.05;;;4.10;;
71038;SDS011;58692;43.212;27.908;2022-10-17T07:37:36;9.05;;;4.28;;
71038;SDS011;58692;43.212;27.908;2022-10-17T07:40:03;8.50;;;4.00;;
71038;SDS011;58692;43.212;27.908;2022-10-17T07:42:30;8.50;;;4.10;;
71038;SDS011;58692;43.212;27.908;2022-10-17T07:44:57;8.52;;;4.10;;
71038;SDS011;58692;43.212;27.908;2022-10-17T07:47:22;11.23;;;4.30;;
71038;SDS011;58692;43.212;27.908;2022-10-17T07:49:48;7.57;;;3.90;;
71038;SDS011;58692;43.212;27.908;2022-10-17T07:52:14;8.83;;;4.30;;
71038;SDS011;58692;43.212;27.908;2022-10-17T07:54:43;9.80;;;3.75;;
71038;SDS011;58692;43.212;27.908;2022-10-17T07:57:09;13.23;;;4.22;;
71038;SDS011;58692;43.212;27.908;2022-10-17T07:59:42;8.07;;;3.50;;
71038;SDS011;58692;43.212;27.908;2022-10-17T08:02:09;7.57;;;3.90;;
71038;SDS011;58692;43.212;27.908;2022-10-17T08:04:44;9.43;;;4.13;;
71038;SDS011;58692;43.212;27.908;2022-10-17T08:07:10;9.17;;;3.87;;
71038;SDS011;58692;43.212;27.908;2022-10-17T08:09:35;7.40;;;3.55;;
71038;SDS011;58692;43.212;27.908;2022-10-17T08:12:01;7.47;;;4.00;;
71038;SDS011;58692;43.212;27.908;2022-10-17T08:14:27;9.25;;;3.80;;
71038;SDS011;58692;43.212;27.908;2022-10-17T08:16:53;9.03;;;3.73;;
71038;SDS011;58692;43.212;27.908;2022-10-17T08:19:19;8.80;;;3.70;;
71038;SDS011;58692;43.212;27.908;2022-10-17T08:21:44;8.40;;;3.93;;
71038;SDS011;58692;43.212;27.908;2022-10-17T08:24:11;7.32;;;3.60;;
71038;SDS011;58692;43.212;27.908;2022-10-17T08:26:36;10.38;;;3.80;;
71038;SDS011;58692;43.212;27.908;2022-10-17T08:29:02;7.50;;;3.43;;
71038;SDS011;58692;43.212;27.908;2022-10-17T08:31:35;8.60;;;3.33;;
71038;SDS011;58692;43.212;27.908;2022-10-17T08:34:10;10.27;;;3.58;;
71038;SDS011;58692;43.212;27.908;2022-10-17T08:36:39;6.40;;;3.40;;
71038;SDS011;58692;43.212;27.908;2022-10-17T08:39:05;8.23;;;3.40;;
71038;SDS011;58692;43.212;27.908;2022-10-17T08:44:17;9.48;;;3.65;;
71038;SDS011;58692;43.212;27.908;2022-10-17T08:47:00;10.63;;;4.00;;
71038;SDS011;58692;43.212;27.908;2022-10-17T08:49:38;10.30;;;3.50;;
71038;SDS011;58692;43.212;27.908;2022-10-17T08:55:12;8.95;;;3.58;;
71038;SDS011;58692;43.212;27.908;2022-10-17T08:57:41;7.90;;;3.40;;
71038;SDS011;58692;43.212;27.908;2022-10-17T09:00:14;10.40;;;3.57;;
71038;SDS011;58692;43.212;27.908;2022-10-17T09:08:13;9.20;;;3.53;;
71038;SDS011;58692;43.212;27.908;2022-10-17T09:10:59;11.40;;;3.67;;
71038;SDS011;58692;43.212;27.908;2022-10-17T09:19:24;8.15;;;3.63;;
71038;SDS011;58692;43.212;27.908;2022-10-17T09:22:01;7.40;;;3.40;;
71038;SDS011;58692;43.212;27.908;2022-10-17T09:24:39;9.10;;;3.78;;
71038;SDS011;58692;43.212;27.908;2022-10-17T09:27:24;13.23;;;3.93;;
71038;SDS011;58692;43.212;27.908;2022-10-17T09:29:53;8.68;;;3.58;;
71038;SDS011;58692;43.212;27.908;2022-10-17T09:32:27;7.55;;;3.22;;
71038;SDS011;58692;43.212;27.908;2022-10-17T09:34:56;9.67;;;3.40;;
71038;SDS011;58692;43.212;27.908;2022-10-17T09:37:25;6.00;;;3.05;;
71038;SDS011;58692;43.212;27.908;2022-10-17T09:39:55;7.72;;;3.53;;
71038;SDS011;58692;43.212;27.908;2022-10-17T09:42:22;10.25;;;3.40;;
71038;SDS011;58692;43.212;27.908;2022-10-17T09:44:55;10.23;;;4.97;;
71038;SDS011;58692;43.212;27.908;2022-10-17T09:50:14;8.30;;;3.63;;
71038;SDS011;58692;43.212;27.908;2022-10-17T09:52:48;6.30;;;3.00;;
71038;SDS011;58692;43.212;27.908;2022-10-17T09:55:17;8.25;;;3.30;;
71038;SDS011;58692;43.212;27.908;2022-10-17T09:57:53;7.17;;;3.00;;
71038;SDS011;58692;43.212;27.908;2022-10-17T10:00:28;7.20;;;2.90;;
71038;SDS011;58692;43.212;27.908;2022-10-17T10:05:40;7.95;;;3.20;;
71038;SDS011;58692;43.212;27.908;2022-10-17T10:08:12;7.20;;;3.10;;
71038;SDS011;58692;43.212;27.908;2022-10-17T10:10:40;10.47;;;3.43;;
71038;SDS011;58692;43.212;27.908;2022-10-17T10:13:16;8.90;;;3.03;;
71038;SDS011;58692;43.212;27.908;2022-10-17T10:18:58;7.20;;;3.15;;
71038;SDS011;58692;43.212;27.908;2022-10-17T10:21:54;8.35;;;3.35;;
71038;SDS011;58692;43.212;27.908;2022-10-17T10:24:37;7.50;;;3.30;;
71038;SDS011;58692;43.212;27.908;2022-10-17T10:27:12;9.75;;;3.10;;
71038;SDS011;58692;43.212;27.908;2022-10-17T10:29:41;10.25;;;3.30;;
71038;SDS011;58692;43.212;27.908;2022-10-17T10:32:25;9.02;;;3.88;;
71038;SDS011;58692;43.212;27.908;2022-10-17T10:37:25;6.90;;;3.20;;
71038;SDS011;58692;43.212;27.908;2022-10-17T10:44:53;8.32;;;3.50;;
71038;SDS011;58692;43.212;27.908;2022-10-17T10:47:24;8.20;;;3.40;;
71038;SDS011;58692;43.212;27.908;2022-10-17T10:52:46;8.80;;;3.42;;
71038;SDS011;58692;43.212;27.908;2022-10-17T10:55:35;10.00;;;2.95;;
71038;SDS011;58692;43.212;27.908;2022-10-17T10:58:19;6.15;;;3.10;;
71038;SDS011;58692;43.212;27.908;2022-10-17T11:06:49;8.82;;;3.28;;
71038;SDS011;58692;43.212;27.908;2022-10-17T11:15:02;8.88;;;3.40;;
71038;SDS011;58692;43.212;27.908;2022-10-17T11:23:39;8.05;;;2.90;;
71038;SDS011;58692;43.212;27.908;2022-10-17T11:26:14;8.57;;;3.15;;
71038;SDS011;58692;43.212;27.908;2022-10-17T11:28:50;8.38;;;2.95;;
71038;SDS011;58692;43.212;27.908;2022-10-17T11:31:17;8.73;;;3.10;;
71038;SDS011;58692;43.212;27.908;2022-10-17T11:33:49;7.95;;;3.30;;
71038;SDS011;58692;43.212;27.908;2022-10-17T11:36:17;6.90;;;2.92;;
71038;SDS011;58692;43.212;27.908;2022-10-17T11:38:59;6.40;;;3.08;;
71038;SDS011;58692;43.212;27.908;2022-10-17T11:41:36;6.65;;;2.75;;
71038;SDS011;58692;43.212;27.908;2022-10-17T11:47:05;8.02;;;2.90;;
71038;SDS011;58692;43.212;27.908;2022-10-17T11:49:42;5.82;;;2.83;;
71038;SDS011;58692;43.212;27.908;2022-10-17T11:54:54;8.05;;;3.30;;
71038;SDS011;58692;43.212;27.908;2022-10-17T12:03:06;7.68;;;3.20;;
71038;SDS011;58692;43.212;27.908;2022-10-17T12:10:59;8.87;;;3.00;;
71038;SDS011;58692;43.212;27.908;2022-10-17T12:15:57;5.53;;;2.90;;
71038;SDS011;58692;43.212;27.908;2022-10-17T12:18:44;6.63;;;3.00;;
71038;SDS011;58692;43.212;27.908;2022-10-17T12:21:10;6.43;;;3.00;;
71038;SDS011;58692;43.212;27.908;2022-10-17T12:23:36;9.55;;;3.45;;
71038;SDS011;58692;43.212;27.908;2022-10-17T12:26:05;9.50;;;2.93;;
71038;SDS011;58692;43.212;27.908;2022-10-17T12:28:40;10.57;;;3.13;;
71038;SDS011;58692;43.212;27.908;2022-10-17T12:31:09;7.13;;;3.00;;
71038;SDS011;58692;43.212;27.908;2022-10-17T12:33:48;7.82;;;3.28;;
71038;SDS011;58692;43.212;27.908;2022-10-17T12:38:48;8.33;;;3.50;;
71038;SDS011;58692;43.212;27.908;2022-10-17T12:41:15;6.18;;;3.03;;
71038;SDS011;58692;43.212;27.908;2022-10-17T12:44:06;7.57;;;3.15;;
71038;SDS011;58692;43.212;27.908;2022-10-17T12:47:26;9.60;;;3.40;;
71038;SDS011;58692;43.212;27.908;2022-10-17T12:50:03;5.25;;;3.13;;
71038;SDS011;58692;43.212;27.908;2022-10-17T12:53:04;5.40;;;2.77;;
71038;SDS011;58692;43.212;27.908;2022-10-17T12:55:31;6.85;;;2.90;;
71038;SDS011;58692;43.212;27.908;2022-10-17T12:58:05;6.60;;;2.80;;
71038;SDS011;58692;43.212;27.908;2022-10-17T13:03:23;7.97;;;2.80;;
71038;SDS011;58692;43.212;27.908;2022-10-17T13:06:06;7.18;;;2.80;;
71038;SDS011;58692;43.212;27.908;2022-10-17T13:08:33;7.82;;;2.90;;
71038;SDS011;58692;43.212;27.908;2022-10-17T13:11:03;8.43;;;2.80;;
71038;SDS011;58692;43.212;27.908;2022-10-17T13:13:41;10.00;;;3.10;;
71038;SDS011;58692;43.212;27.908;2022-10-17T13:18:59;7.68;;;3.00;;
71038;SDS011;58692;43.212;27.908;2022-10-17T13:21:27;8.15;;;3.00;;
71038;SDS011;58692;43.212;27.908;2022-10-17T13:23:53;7.47;;;2.75;;
71038;SDS011;58692;43.212;27.908;2022-10-17T13:26:22;6.73;;;2.90;;
71038;SDS011;58692;43.212;27.908;2022-10-17T13:31:36;7.13;;;3.05;;
71038;SDS011;58692;43.212;27.908;2022-10-17T13:34:04;6.95;;;2.90;;
71038;SDS011;58692;43.212;27.908;2022-10-17T13:36:39;6.88;;;3.13;;
71038;SDS011;58692;43.212;27.908;2022-10-17T13:39:09;8.87;;;2.60;;
71038;SDS011;58692;43.212;27.908;2022-10-17T13:41:39;5.28;;;2.80;;
71038;SDS011;58692;43.212;27.908;2022-10-17T13:44:11;7.03;;;2.72;;
71038;SDS011;58692;43.212;27.908;2022-10-17T13:46:44;8.35;;;3.00;;
71038;SDS011;58692;43.212;27.908;2022-10-17T13:49:14;6.80;;;3.00;;
71038;SDS011;58692;43.212;27.908;2022-10-17T13:51:48;8.48;;;3.80;;
71038;SDS011;58692;43.212;27.908;2022-10-17T13:54:17;8.10;;;3.20;;
71038;SDS011;58692;43.212;27.908;2022-10-17T13:56:59;8.70;;;3.00;;
71038;SDS011;58692;43.212;27.908;2022-10-17T13:59:27;6.13;;;3.10;;
71038;SDS011;58692;43.212;27.908;2022-10-17T14:01:57;7.13;;;2.90;;
71038;SDS011;58692;43.212;27.908;2022-10-17T14:04:26;6.72;;;3.30;;
71038;SDS011;58692;43.212;27.908;2022-10-17T14:06:52;8.10;;;2.92;;
71038;SDS011;58692;43.212;27.908;2022-10-17T14:09:22;6.45;;;3.03;;
71038;SDS011;58692;43.212;27.908;2022-10-17T14:11:59;7.03;;;2.77;;
71038;SDS011;58692;43.212;27.908;2022-10-17T14:14:28;8.52;;;3.20;;
71038;SDS011;58692;43.212;27.908;2022-10-17T14:16:54;7.65;;;3.30;;
71038;SDS011;58692;43.212;27.908;2022-10-17T14:22:29;8.50;;;2.80;;
71038;SDS011;58692;43.212;27.908;2022-10-17T14:24:49;6.50;;;2.93;;
71038;SDS011;58692;43.212;27.908;2022-10-17T14:30:00;9.40;;;3.28;;
71038;SDS011;58692;43.212;27.908;2022-10-17T14:32:29;6.80;;;3.45;;
71038;SDS011;58692;43.212;27.908;2022-10-17T14:34:58;7.85;;;3.50;;
71038;SDS011;58692;43.212;27.908;2022-10-17T14:39:51;7.00;;;3.20;;
71038;SDS011;58692;43.212;27.908;2022-10-17T14:42:19;8.27;;;3.23;;
71038;SDS011;58692;43.212;27.908;2022-10-17T14:44:47;9.70;;;3.38;;
71038;SDS011;58692;43.212;27.908;2022-10-17T14:47:16;10.60;;;3.25;;
71038;SDS011;58692;43.212;27.908;2022-10-17T14:49:47;8.98;;;3.20;;
71038;SDS011;58692;43.212;27.908;2022-10-17T14:52:23;9.98;;;3.20;;
71038;SDS011;58692;43.212;27.908;2022-10-17T14:54:50;10.63;;;3.30;;
71038;SDS011;58692;43.212;27.908;2022-10-17T14:57:25;7.90;;;3.50;;
71038;SDS011;58692;43.212;27.908;2022-10-17T14:59:54;7.10;;;3.35;;
71038;SDS011;58692;43.212;27.908;2022-10-17T15:02:22;8.10;;;3.20;;
71038;SDS011;58692;43.212;27.908;2022-10-17T15:04:49;8.10;;;3.20;;
71038;SDS011;58692;43.212;27.908;2022-10-17T15:07:16;8.75;;;3.58;;
71038;SDS011;58692;43.212;27.908;2022-10-17T15:09:48;8.43;;;3.50;;
71038;SDS011;58692;43.212;27.908;2022-10-17T15:12:18;13.90;;;3.70;;
71038;SDS011;58692;43.212;27.908;2022-10-17T15:14:45;7.27;;;3.50;;
71038;SDS011;58692;43.212;27.908;2022-10-17T15:17:14;8.70;;;3.78;;
71038;SDS011;58692;43.212;27.908;2022-10-17T15:19:42;7.80;;;3.60;;
71038;SDS011;58692;43.212;27.908;2022-10-17T15:22:09;10.70;;;4.25;;
71038;SDS011;58692;43.212;27.908;2022-10-17T15:24:39;10.57;;;4.13;;
71038;SDS011;58692;43.212;27.908;2022-10-17T15:27:14;7.20;;;3.70;;
71038;SDS011;58692;43.212;27.908;2022-10-17T15:29:45;8.23;;;3.47;;
71038;SDS011;58692;43.212;27.908;2022-10-17T15:32:14;10.27;;;4.82;;
71038;SDS011;58692;43.212;27.908;2022-10-17T15:35:00;10.55;;;4.07;;
71038;SDS011;58692;43.212;27.908;2022-10-17T15:37:26;8.53;;;3.90;;
71038;SDS011;58692;43.212;27.908;2022-10-17T15:39:58;10.05;;;3.90;;
71038;SDS011;58692;43.212;27.908;2022-10-17T15:42:39;8.73;;;4.50;;
71038;SDS011;58692;43.212;27.908;2022-10-17T15:45:05;8.17;;;4.20;;
71038;SDS011;58692;43.212;27.908;2022-10-17T15:47:33;9.48;;;3.88;;
71038;SDS011;58692;43.212;27.908;2022-10-17T15:49:59;9.63;;;4.38;;
71038;SDS011;58692;43.212;27.908;2022-10-17T15:52:26;9.98;;;3.95;;
71038;SDS011;58692;43.212;27.908;2022-10-17T15:54:52;14.27;;;5.20;;
71038;SDS011;58692;43.212;27.908;2022-10-17T15:57:26;10.18;;;4.70;;
71038;SDS011;58692;43.212;27.908;2022-10-17T15:59:56;12.75;;;4.55;;
71038;SDS011;58692;43.212;27.908;2022-10-17T16:02:23;9.05;;;4.35;;
71038;SDS011;58692;43.212;27.908;2022-10-17T16:04:51;7.55;;;4.07;;
71038;SDS011;58692;43.212;27.908;2022-10-17T16:07:19;10.30;;;4.23;;
71038;SDS011;58692;43.212;27.908;2022-10-17T16:09:45;11.68;;;4.57;;
71038;SDS011;58692;43.212;27.908;2022-10-17T16:12:14;10.68;;;5.03;;
71038;SDS011;58692;43.212;27.908;2022-10-17T16:14:46;10.80;;;5.30;;
71038;SDS011;58692;43.212;27.908;2022-10-17T16:17:12;12.25;;;4.68;;
71038;SDS011;58692;43.212;27.908;2022-10-17T16:19:40;11.77;;;4.90;;
71038;SDS011;58692;43.212;27.908;2022-10-17T16:22:08;10.63;;;4.27;;
71038;SDS011;58692;43.212;27.908;2022-10-17T16:24:43;10.40;;;4.80;;
71038;SDS011;58692;43.212;27.908;2022-10-17T16:27:09;9.65;;;4.30;;
71038;SDS011;58692;43.212;27.908;2022-10-17T16:29:35;11.10;;;4.20;;
71038;SDS011;58692;43.212;27.908;2022-10-17T16:32:00;9.38;;;4.53;;
71038;SDS011;58692;43.212;27.908;2022-10-17T16:34:46;11.02;;;4.30;;
71038;SDS011;58692;43.212;27.908;2022-10-17T16:37:13;11.67;;;5.00;;
71038;SDS011;58692;43.212;27.908;2022-10-17T16:39:40;10.07;;;4.53;;
71038;SDS011;58692;43.212;27.908;2022-10-17T16:42:06;8.93;;;4.50;;
71038;SDS011;58692;43.212;27.908;2022-10-17T16:44:35;10.98;;;4.50;;
71038;SDS011;58692;43.212;27.908;2022-10-17T16:47:07;10.98;;;4.63;;
71038;SDS011;58692;43.212;27.908;2022-10-17T16:49:37;12.17;;;4.27;;